Time;durP1;ratioP1;P1;durP2;ratioP2;P2;SDS_P1;SDS_P2;PMS_P1;PMS_P2;Temp;Humidity;BMP_temperature;BMP_pressure;BME280_temperature;BME280_humidity;BME280_pressure;Samples;Min_cycle;Max_cycle;Signal;HPM_P1;HPM_P2
2023/07/26 00:02:01;;;;;;;;;5.00;4.50;;;;;17.17;52.17;100853.88;5043161;28;45323;-72
2023/07/26 00:04:27;;;;;;;;;8.00;4.00;;;;;17.16;52.08;100857.47;5038729;28;45528;-72
2023/07/26 00:06:52;;;;;;;;;9.00;4.00;;;;;17.16;52.31;100860.13;5035369;28;45335;-72
2023/07/26 00:09:18;;;;;;;;;4.25;3.00;;;;;17.16;52.29;100862.75;5028978;28;45502;-72
2023/07/26 00:11:44;;;;;;;;;5.00;4.00;;;;;17.17;52.33;100862.66;5022463;28;45922;-72
2023/07/26 00:14:09;;;;;;;;;3.50;3.50;;;;;17.16;52.38;100865.41;5045564;28;45351;-72
2023/07/26 00:16:34;;;;;;;;;5.00;4.00;;;;;17.14;51.96;100862.84;5045146;28;58402;-72
2023/07/26 00:19:00;;;;;;;;;5.50;4.00;;;;;17.14;52.11;100859.31;5017404;28;48678;-72
2023/07/26 00:21:25;;;;;;;;;4.50;3.00;;;;;17.13;52.18;100860.25;5033739;28;45617;-72
2023/07/26 00:23:50;;;;;;;;;5.25;4.25;;;;;17.08;52.21;100863.13;5037210;28;46349;-72
2023/07/26 00:26:16;;;;;;;;;4.25;4.00;;;;;17.11;52.14;100862.13;5034897;28;45387;-72
2023/07/26 00:28:41;;;;;;;;;5.00;3.00;;;;;17.09;51.96;100872.78;5041061;28;59049;-72
2023/07/26 00:31:07;;;;;;;;;5.50;4.25;;;;;17.07;51.80;100869.38;5031273;28;45494;-72
2023/07/26 00:33:32;;;;;;;;;4.50;4.50;;;;;17.04;51.91;100870.38;5036278;28;45403;-73
2023/07/26 00:35:57;;;;;;;;;5.75;3.75;;;;;17.05;51.71;100877.38;5041011;28;65478;-72
2023/07/26 00:38:23;;;;;;;;;5.25;4.75;;;;;17.05;52.30;100873.88;5036351;28;54823;-72
2023/07/26 00:40:48;;;;;;;;;6.00;5.00;;;;;17.05;52.31;100872.09;5011809;28;65919;-72
2023/07/26 00:43:13;;;;;;;;;5.75;5.00;;;;;17.03;52.10;100867.81;5034502;28;46415;-72
2023/07/26 00:45:40;;;;;;;;;6.00;6.00;;;;;17.03;52.18;100873.09;5031474;28;63063;-72
2023/07/26 00:48:06;;;;;;;;;5.00;4.50;;;;;17.01;52.53;100869.69;5037999;28;45576;-72
2023/07/26 00:50:31;;;;;;;;;3.00;3.00;;;;;17.01;52.16;100867.88;5032203;28;45591;-72
2023/07/26 00:52:56;;;;;;;;;6.00;6.00;;;;;17.02;52.27;100868.75;5014897;28;72622;-72
2023/07/26 00:55:22;;;;;;;;;7.25;3.50;;;;;17.00;52.50;100865.34;5030738;28;45375;-72
2023/07/26 00:57:47;;;;;;;;;9.00;5.00;;;;;16.99;52.66;100863.63;5028122;28;45522;-72
2023/07/26 01:00:13;;;;;;;;;8.00;6.75;;;;;17.00;53.00;100870.63;5020065;28;45515;-72
2023/07/26 01:02:39;;;;;;;;;6.50;4.50;;;;;16.98;52.88;100864.53;5042063;28;46471;-72
2023/07/26 01:05:05;;;;;;;;;5.50;5.00;;;;;16.98;53.05;100865.41;5023227;28;45410;-72
2023/07/26 01:07:39;;;;;;;;;5.00;4.00;;;;;16.98;53.15;100869.81;5038568;28;46119;-72
2023/07/26 01:10:11;;;;;;;;;8.25;5.25;;;;;16.96;53.20;100866.41;5044174;28;45487;-72
2023/07/26 01:12:40;;;;;;;;;4.75;4.00;;;;;16.96;53.10;100867.25;5035947;28;45617;-72
2023/07/26 01:15:10;;;;;;;;;2.75;2.75;;;;;16.95;52.85;100868.22;5042049;28;45398;-72
2023/07/26 01:17:36;;;;;;;;;2.75;2.25;;;;;16.94;53.32;100865.66;5035361;28;45466;-72
2023/07/26 01:20:01;;;;;;;;;3.75;3.75;;;;;16.93;52.85;100871.84;5039445;28;46011;-72
2023/07/26 01:22:26;;;;;;;;;4.00;4.00;;;;;16.92;53.02;100863.06;5037370;28;45463;-72
2023/07/26 01:24:52;;;;;;;;;4.00;2.75;;;;;16.93;52.43;100867.44;5022854;28;45411;-72
2023/07/26 01:27:17;;;;;;;;;4.25;3.00;;;;;16.92;52.59;100862.22;5030765;28;57724;-72
2023/07/26 01:29:42;;;;;;;;;2.75;2.00;;;;;16.89;52.81;100856.16;5036889;28;64119;-72
2023/07/26 01:32:10;;;;;;;;;4.50;2.00;;;;;16.91;52.82;100865.78;5060846;28;58031;-72
2023/07/26 01:34:37;;;;;;;;;3.00;3.00;;;;;16.90;52.69;100859.66;5019926;28;45465;-72
2023/07/26 01:37:02;;;;;;;;;5.75;3.00;;;;;16.87;52.48;100857.16;5046202;28;45501;-72
2023/07/26 01:39:28;;;;;;;;;4.00;3.25;;;;;16.87;52.59;100854.53;5038722;28;45364;-72
2023/07/26 01:41:54;;;;;;;;;4.00;2.25;;;;;16.87;52.81;100857.16;5019315;28;46965;-72
2023/07/26 01:44:19;;;;;;;;;2.75;2.50;;;;;16.85;52.59;100853.75;5028237;28;48339;-72
2023/07/26 01:46:45;;;;;;;;;3.00;3.00;;;;;16.85;52.77;100854.59;5038925;28;61241;-72
2023/07/26 01:49:10;;;;;;;;;3.00;2.50;;;;;16.85;52.90;100854.59;5042061;28;45478;-72
2023/07/26 01:51:35;;;;;;;;;2.25;2.25;;;;;16.83;52.80;100845.03;5032869;28;46491;-72
2023/07/26 01:54:01;;;;;;;;;2.75;2.75;;;;;16.83;53.07;100851.19;5019229;28;72627;-72
2023/07/26 01:56:26;;;;;;;;;2.75;2.75;;;;;16.83;52.72;100855.59;5035461;28;48772;-72
2023/07/26 01:58:51;;;;;;;;;3.00;3.00;;;;;16.82;52.53;100853.88;5025818;28;45706;-72
2023/07/26 02:01:17;;;;;;;;;5.00;2.75;;;;;16.80;53.14;100853.97;5031881;28;45336;-72
2023/07/26 02:03:42;;;;;;;;;4.75;2.75;;;;;16.79;52.77;100857.53;5032322;28;45474;-72
2023/07/26 02:06:07;;;;;;;;;4.50;2.75;;;;;16.80;53.10;100848.69;5035106;28;51604;-72
2023/07/26 02:08:33;;;;;;;;;3.25;3.00;;;;;16.77;53.08;100843.56;5038980;28;60008;-72
2023/07/26 02:10:58;;;;;;;;;4.00;4.00;;;;;16.77;53.24;100854.13;5038562;28;77146;-72
2023/07/26 02:13:24;;;;;;;;;3.00;3.00;;;;;16.77;52.86;100847.97;5038228;28;66379;-72
2023/07/26 02:15:49;;;;;;;;;3.50;3.00;;;;;16.76;53.25;100846.28;5039667;28;45501;-72
2023/07/26 02:18:14;;;;;;;;;3.25;2.75;;;;;16.74;53.22;100843.69;5041280;28;45822;-71
2023/07/26 02:20:40;;;;;;;;;5.25;2.25;;;;;16.75;53.26;100845.44;5043250;28;45459;-71
2023/07/26 02:23:05;;;;;;;;;4.25;4.25;;;;;16.75;53.46;100855.13;5035871;28;71761;-72
2023/07/26 02:25:30;;;;;;;;;2.00;2.00;;;;;16.71;53.30;100849.13;5037671;28;45302;-72
2023/07/26 02:27:56;;;;;;;;;3.00;3.00;;;;;16.73;53.83;100846.41;5037790;28;45371;-72
2023/07/26 02:30:21;;;;;;;;;4.00;3.00;;;;;16.73;53.55;100849.91;5037324;28;63884;-72
2023/07/26 02:32:46;;;;;;;;;3.00;3.00;;;;;16.72;53.15;100850.84;5035209;28;64435;-72
2023/07/26 02:35:12;;;;;;;;;3.50;3.50;;;;;16.72;53.57;100850.00;5038803;28;45511;-72
2023/07/26 02:37:37;;;;;;;;;3.75;3.25;;;;;16.72;53.48;100852.66;5045187;28;46591;-72
2023/07/26 02:40:03;;;;;;;;;3.00;3.00;;;;;16.72;53.26;100853.50;5023654;28;47128;-72
2023/07/26 02:42:28;;;;;;;;;4.00;3.00;;;;;16.70;53.49;100848.28;5040021;28;45289;-72
2023/07/26 02:44:54;;;;;;;;;3.00;3.00;;;;;16.68;53.53;100842.22;5037939;28;45309;-72
2023/07/26 02:47:20;;;;;;;;;4.50;2.75;;;;;16.73;53.51;100857.00;5032847;28;52935;-72
2023/07/26 02:49:45;;;;;;;;;3.00;2.75;;;;;16.70;53.66;100847.44;5037706;28;45664;-72
2023/07/26 02:52:10;;;;;;;;;2.25;2.25;;;;;16.70;53.39;100853.56;5026614;28;45422;-72
2023/07/26 02:54:36;;;;;;;;;6.25;3.00;;;;;16.71;53.26;100851.78;5032645;28;57016;-72
2023/07/26 02:57:01;;;;;;;;;3.25;2.75;;;;;16.72;53.44;100852.66;5047322;28;72318;-72
2023/07/26 02:59:26;;;;;;;;;4.50;2.00;;;;;16.70;53.73;100850.09;5029143;28;59927;-72
2023/07/26 03:01:52;;;;;;;;;3.00;3.00;;;;;16.71;53.50;100841.22;5032237;28;55700;-72
2023/07/26 03:04:18;;;;;;;;;3.50;3.25;;;;;16.70;53.47;100843.00;5036014;28;45683;-72
2023/07/26 03:06:43;;;;;;;;;3.00;3.00;;;;;16.69;53.37;100851.00;5038652;28;45409;-72
2023/07/26 03:09:08;;;;;;;;;3.00;2.75;;;;;16.70;53.40;100850.94;5038792;28;46551;-72
2023/07/26 03:11:35;;;;;;;;;3.25;2.75;;;;;16.69;53.43;100851.84;5035168;28;45347;-72
2023/07/26 03:14:00;;;;;;;;;3.25;2.75;;;;;16.68;53.40;100847.53;5039317;28;45360;-72
2023/07/26 03:16:25;;;;;;;;;4.50;4.00;;;;;16.69;53.82;100846.56;5038546;28;73273;-72
2023/07/26 03:18:50;;;;;;;;;3.75;3.75;;;;;16.70;53.48;100847.44;5037612;28;67908;-72
2023/07/26 03:21:16;;;;;;;;;2.25;2.25;;;;;16.72;53.43;100852.66;5034524;28;59870;-72
2023/07/26 03:23:41;;;;;;;;;3.00;3.00;;;;;16.69;53.68;100856.28;5025203;28;45490;-71
2023/07/26 03:26:07;;;;;;;;;3.00;2.00;;;;;16.68;53.85;100858.09;5032461;28;62746;-72
2023/07/26 03:28:32;;;;;;;;;4.00;3.75;;;;;16.66;53.79;100857.31;5036777;28;46160;-71
2023/07/26 03:30:58;;;;;;;;;5.25;3.00;;;;;16.69;54.20;100869.50;5037525;28;45321;-72
2023/07/26 03:33:23;;;;;;;;;3.75;2.00;;;;;16.68;53.86;100870.44;5018864;28;46851;-72
2023/07/26 03:35:49;;;;;;;;;3.50;3.50;;;;;16.65;53.89;100866.16;5015199;28;45570;-72
2023/07/26 03:38:14;;;;;;;;;3.75;2.75;;;;;16.64;53.92;100866.22;5025147;28;48059;-72
2023/07/26 03:40:40;;;;;;;;;3.75;3.00;;;;;16.66;54.08;100877.56;5037856;28;48357;-71
2023/07/26 03:43:06;;;;;;;;;3.00;3.00;;;;;16.64;54.59;100871.50;5039523;28;45560;-71
2023/07/26 03:45:31;;;;;;;;;3.00;3.00;;;;;16.65;54.39;100875.88;5037916;28;45662;-71
2023/07/26 03:47:57;;;;;;;;;2.00;2.00;;;;;16.65;54.59;100878.53;5034703;28;45514;-71
2023/07/26 03:50:22;;;;;;;;;2.75;2.75;;;;;16.63;54.57;100881.25;5032737;28;45595;-71
2023/07/26 03:52:48;;;;;;;;;4.50;4.50;;;;;16.63;54.58;100872.47;5040581;28;64426;-72
2023/07/26 03:55:14;;;;;;;;;3.00;3.00;;;;;16.63;54.67;100872.47;5032915;28;45459;-71
2023/07/26 03:57:39;;;;;;;;;5.00;2.00;;;;;16.60;54.79;100868.19;5044792;28;48089;-72
2023/07/26 04:00:06;;;;;;;;;6.00;3.75;;;;;16.61;55.29;100869.91;5037166;28;45434;-71
2023/07/26 04:02:32;;;;;;;;;3.25;3.25;;;;;16.60;55.10;100869.97;5037363;28;45384;-72
2023/07/26 04:04:57;;;;;;;;;6.00;4.00;;;;;16.58;55.32;100859.47;5036928;28;45236;-71
2023/07/26 04:07:23;;;;;;;;;6.75;3.75;;;;;16.58;55.38;100867.41;5022752;28;47313;-71
2023/07/26 04:09:49;;;;;;;;;4.75;4.00;;;;;16.58;55.38;100856.84;5032079;28;45218;-71
2023/07/26 04:12:14;;;;;;;;;5.00;3.50;;;;;16.56;56.33;100861.34;5033747;28;45275;-72
2023/07/26 04:14:40;;;;;;;;;4.75;3.75;;;;;16.57;55.81;100867.47;5018910;28;45402;-72
2023/07/26 04:17:05;;;;;;;;;3.00;3.00;;;;;16.53;56.11;100861.50;5042166;28;46467;-72
2023/07/26 04:19:31;;;;;;;;;3.50;1.25;;;;;16.55;56.06;100867.53;5024445;28;63700;-71
2023/07/26 04:21:56;;;;;;;;;8.00;3.75;;;;;16.54;55.98;100864.97;5039006;28;45233;-72
2023/07/26 04:24:22;;;;;;;;;4.50;4.50;;;;;16.52;56.27;100862.44;5018939;28;45401;-72
2023/07/26 04:26:47;;;;;;;;;3.75;3.00;;;;;16.53;56.46;100858.84;5030139;28;46609;-72
2023/07/26 04:29:12;;;;;;;;;8.00;5.00;;;;;16.52;56.05;100854.50;5038516;28;61545;-72
2023/07/26 04:31:38;;;;;;;;;3.00;3.00;;;;;16.51;56.11;100851.00;5028612;28;58165;-72
2023/07/26 04:34:03;;;;;;;;;5.00;4.00;;;;;16.49;56.32;100858.16;5049065;28;72584;-72
2023/07/26 04:36:28;;;;;;;;;3.00;3.00;;;;;16.52;56.25;100857.16;5028361;28;69160;-72
2023/07/26 04:38:53;;;;;;;;;4.00;3.50;;;;;16.52;56.95;100858.00;5039629;28;73237;-72
2023/07/26 04:41:19;;;;;;;;;5.25;4.00;;;;;16.53;56.80;100853.56;5031936;28;64553;-72
2023/07/26 04:43:44;;;;;;;;;5.00;3.50;;;;;16.56;56.91;100861.34;5026567;28;63893;-72
2023/07/26 04:46:09;;;;;;;;;4.00;3.50;;;;;16.57;56.63;100870.13;5035085;28;62995;-71
2023/07/26 04:48:35;;;;;;;;;6.00;4.00;;;;;16.57;56.43;100860.41;5030187;28;45395;-72
2023/07/26 04:51:00;;;;;;;;;4.75;3.00;;;;;16.58;56.85;100869.19;5024967;28;45509;-71
2023/07/26 04:53:25;;;;;;;;;2.25;2.25;;;;;16.60;56.95;100867.31;5038192;28;45499;-72
2023/07/26 04:55:51;;;;;;;;;3.25;3.25;;;;;16.60;57.32;100867.31;5036244;28;45518;-71
2023/07/26 04:58:18;;;;;;;;;3.50;3.50;;;;;16.59;57.46;100873.53;5035420;28;45519;-72
2023/07/26 05:00:43;;;;;;;;;4.75;3.75;;;;;16.60;57.28;100875.25;5019840;28;45363;-72
2023/07/26 05:03:10;;;;;;;;;6.50;4.75;;;;;16.60;57.49;100881.38;5022522;28;57819;-72
2023/07/26 05:05:35;;;;;;;;;6.00;5.00;;;;;16.62;57.17;100871.59;5035841;28;46184;-72
2023/07/26 05:08:01;;;;;;;;;5.00;4.00;;;;;16.64;57.39;100869.75;5019289;28;45819;-72
2023/07/26 05:10:26;;;;;;;;;7.25;4.25;;;;;16.65;57.37;100876.72;5019040;28;45659;-72
2023/07/26 05:12:52;;;;;;;;;4.00;4.00;;;;;16.63;57.64;100868.03;5050053;28;58350;-72
2023/07/26 05:15:17;;;;;;;;;4.75;4.25;;;;;16.67;57.75;100869.56;5044271;28;45441;-72
2023/07/26 05:17:44;;;;;;;;;4.00;3.50;;;;;16.69;57.84;100870.34;5037969;28;45457;-72
2023/07/26 05:20:10;;;;;;;;;6.00;4.00;;;;;16.74;57.44;100878.06;5018390;28;45312;-72
2023/07/26 05:22:35;;;;;;;;;5.00;3.75;;;;;16.76;57.54;100877.97;5029473;28;45602;-72
2023/07/26 05:25:00;;;;;;;;;4.50;3.75;;;;;16.77;57.66;100879.69;5029382;28;73464;-72
2023/07/26 05:27:26;;;;;;;;;7.25;5.00;;;;;16.81;57.59;100884.75;5028154;28;45536;-72
2023/07/26 05:29:53;;;;;;;;;6.75;5.00;;;;;16.84;57.40;100887.28;5027409;28;68028;-72
2023/07/26 05:32:18;;;;;;;;;7.75;3.75;;;;;16.88;57.68;100878.25;5034540;28;45242;-72
2023/07/26 05:34:44;;;;;;;;;3.00;3.00;;;;;16.89;57.65;100874.69;5040390;28;45546;-72
2023/07/26 05:37:09;;;;;;;;;6.25;5.00;;;;;16.94;57.80;100892.09;5038785;28;45440;-72
2023/07/26 05:39:34;;;;;;;;;5.25;4.25;;;;;16.98;58.02;100889.22;5033523;28;59632;-78
2023/07/26 05:42:00;;;;;;;;;5.75;3.50;;;;;17.01;58.03;100891.69;5030905;28;45286;-73
2023/07/26 05:44:25;;;;;;;;;4.75;4.75;;;;;17.03;57.93;100894.25;5035694;28;70407;-73
2023/07/26 05:46:50;;;;;;;;;5.00;4.75;;;;;17.06;58.21;100894.09;5044027;28;65987;-72
2023/07/26 05:49:16;;;;;;;;;4.25;3.25;;;;;17.08;58.60;100897.50;5039782;28;45500;-74
2023/07/26 05:51:41;;;;;;;;;4.00;3.25;;;;;17.12;58.30;100903.50;5044386;28;45436;-74
2023/07/26 05:54:06;;;;;;;;;6.75;4.00;;;;;17.13;58.50;100911.34;5020848;28;73312;-73
2023/07/26 05:56:32;;;;;;;;;2.75;2.75;;;;;17.17;58.93;100910.25;5037457;28;56607;-74
2023/07/26 05:58:57;;;;;;;;;5.75;4.00;;;;;17.20;58.50;100914.53;5036613;28;46043;-72
2023/07/26 06:01:22;;;;;;;;;6.75;4.50;;;;;17.26;59.17;100916.84;5037800;28;71100;-71
2023/07/26 06:03:48;;;;;;;;;5.50;5.50;;;;;17.27;58.98;100915.94;5038151;28;52265;-72
2023/07/26 06:06:13;;;;;;;;;5.00;5.00;;;;;17.31;58.76;100921.91;5033824;28;68956;-72
2023/07/26 06:08:38;;;;;;;;;5.00;4.75;;;;;17.34;58.85;100924.41;5015983;28;66808;-72
2023/07/26 06:11:04;;;;;;;;;8.75;5.25;;;;;17.41;59.03;100925.78;5035859;28;45482;-73
2023/07/26 06:13:29;;;;;;;;;5.50;5.00;;;;;17.43;59.04;100921.28;5034674;28;46160;-75
2023/07/26 06:15:55;;;;;;;;;6.75;4.75;;;;;17.49;58.98;100933.31;5024238;28;45520;-72
2023/07/26 06:18:21;;;;;;;;;9.25;6.00;;;;;17.54;58.58;100929.50;5041236;28;46819;-71
2023/07/26 06:20:46;;;;;;;;;6.75;4.75;;;;;17.62;58.64;100929.09;5044641;28;45384;-72
2023/07/26 06:23:11;;;;;;;;;4.75;4.50;;;;;17.64;58.85;100938.66;5031724;28;47256;-71
2023/07/26 06:25:37;;;;;;;;;7.75;6.00;;;;;17.70;58.85;100936.63;5035285;28;67656;-73
2023/07/26 06:28:02;;;;;;;;;9.00;5.00;;;;;17.71;59.02;100933.06;5045210;28;57155;-71
2023/07/26 06:30:27;;;;;;;;;6.00;5.75;;;;;17.72;58.81;100935.59;5016284;28;46718;-75
2023/07/26 06:32:53;;;;;;;;;6.75;6.00;;;;;17.77;59.76;100936.19;5042956;28;47970;-73
2023/07/26 06:35:18;;;;;;;;;6.50;5.00;;;;;17.82;58.83;100942.09;5035160;28;62741;-78
2023/07/26 06:37:43;;;;;;;;;6.00;6.00;;;;;17.87;58.58;100944.53;5042624;28;45821;-76
2023/07/26 06:40:09;;;;;;;;;8.75;5.75;;;;;17.95;58.66;100952.06;5020428;28;72116;-74
2023/07/26 06:42:35;;;;;;;;;7.50;4.00;;;;;17.97;58.23;100950.19;5016794;28;46853;-76
2023/07/26 06:45:01;;;;;;;;;4.75;4.50;;;;;17.96;58.12;100951.97;5038567;28;45494;-74
2023/07/26 06:47:26;;;;;;;;;9.25;5.75;;;;;17.95;58.37;100950.25;5034951;28;45598;-72
2023/07/26 06:49:52;;;;;;;;;8.75;5.00;;;;;17.98;58.35;100955.41;5037460;28;59986;-74
2023/07/26 06:52:17;;;;;;;;;7.00;4.25;;;;;18.01;58.38;100949.09;5043207;28;46913;-72
2023/07/26 06:54:42;;;;;;;;;4.75;4.50;;;;;18.07;58.30;100947.91;5046380;28;46713;-78
2023/07/26 06:57:09;;;;;;;;;11.00;7.25;;;;;18.04;57.98;100951.56;5044603;28;58313;-72
2023/07/26 06:59:36;;;;;;;;;7.25;5.75;;;;;18.03;58.26;100949.84;5037509;28;45620;-81
2023/07/26 07:02:05;;;;;;;;;8.00;6.50;;;;;18.03;58.08;100942.75;5059143;28;47268;-79
2023/07/26 07:04:30;;;;;;;;;6.00;5.50;;;;;17.92;58.19;100923.09;5040646;28;45395;-77
2023/07/26 07:06:56;;;;;;;;;6.00;5.00;;;;;18.08;58.38;100952.22;5041867;28;45278;-79
2023/07/26 07:09:21;;;;;;;;;8.00;5.25;;;;;18.13;58.20;100952.84;5021474;28;45808;-76
2023/07/26 07:11:47;;;;;;;;;8.75;7.00;;;;;18.13;58.04;100951.06;5034307;28;67249;-76
2023/07/26 07:14:12;;;;;;;;;10.75;5.50;;;;;18.12;57.97;100937.91;5028768;28;65180;-80
2023/07/26 07:16:38;;;;;;;;;6.00;5.00;;;;;18.19;58.35;100948.06;5017654;28;45999;-77
2023/07/26 07:19:04;;;;;;;;;8.50;7.00;;;;;18.25;57.96;100949.50;5029859;28;45566;-76
2023/07/26 07:21:29;;;;;;;;;6.25;6.00;;;;;18.28;57.94;100938.75;5035125;28;46401;-77
2023/07/26 07:23:55;;;;;;;;;8.50;8.00;;;;;18.34;58.49;100951.66;5023669;28;46073;-79
2023/07/26 07:26:21;;;;;;;;;5.25;5.25;;;;;18.38;58.47;100944.41;5022410;28;45460;-79
2023/07/26 07:28:46;;;;;;;;;8.25;6.50;;;;;18.46;57.96;100952.75;5029611;28;45506;-78
2023/07/26 07:31:11;;;;;;;;;6.00;6.00;;;;;18.50;57.77;100953.44;5018651;28;47109;-81
2023/07/26 07:33:37;;;;;;;;;8.75;6.75;;;;;18.55;57.73;100960.19;5033652;28;45770;-76
2023/07/26 07:36:04;;;;;;;;;13.25;8.00;;;;;18.54;58.01;100962.94;5036821;28;57532;-73
2023/07/26 07:38:29;;;;;;;;;7.00;6.50;;;;;18.50;57.94;100946.34;5037984;28;45490;-76
2023/07/26 07:40:55;;;;;;;;;8.00;6.75;;;;;18.52;58.02;100952.41;5015805;28;47080;-74
2023/07/26 07:43:20;;;;;;;;;8.50;5.00;;;;;18.51;57.83;100952.50;5035303;28;69185;-74
2023/07/26 07:45:45;;;;;;;;;8.25;6.75;;;;;18.47;58.05;100951.81;5036815;28;45862;-76
2023/07/26 07:48:11;;;;;;;;;6.00;5.00;;;;;18.46;58.21;100944.81;5020938;28;63187;-74
2023/07/26 07:50:36;;;;;;;;;6.00;6.00;;;;;18.48;57.62;100948.22;5037256;28;45631;-76
2023/07/26 07:53:02;;;;;;;;;11.00;7.00;;;;;18.51;58.05;100956.00;5034944;28;62379;-74
2023/07/26 07:55:31;;;;;;;;;9.00;5.00;;;;;18.52;57.83;100939.16;5034062;28;45487;-74
2023/07/26 07:57:57;;;;;;;;;8.00;6.00;;;;;18.52;57.75;100948.91;5029859;28;45545;-72
2023/07/26 08:00:22;;;;;;;;;6.00;6.00;;;;;18.50;57.68;100938.41;5033811;28;46632;-72
2023/07/26 08:02:47;;;;;;;;;6.75;5.50;;;;;18.53;57.73;100935.56;5031737;28;46017;-71
2023/07/26 08:05:13;;;;;;;;;11.00;5.75;;;;;18.64;57.80;100940.25;5032205;28;56799;-71
2023/07/26 08:07:38;;;;;;;;;7.75;7.00;;;;;18.78;57.50;100952.72;5031788;28;45670;-73
2023/07/26 08:10:04;;;;;;;;;8.75;6.00;;;;;18.93;57.35;100949.19;5035774;28;67900;-72
2023/07/26 08:12:29;;;;;;;;;8.25;6.00;;;;;19.08;57.11;100944.78;5013992;28;45250;-72
2023/07/26 08:14:54;;;;;;;;;5.00;5.00;;;;;19.15;56.54;100945.28;5032807;28;60139;-74
2023/07/26 08:17:20;;;;;;;;;6.50;5.25;;;;;19.20;56.42;100952.97;5037539;28;45374;-72
2023/07/26 08:19:48;;;;;;;;;5.25;5.00;;;;;19.26;56.36;100955.25;5035068;28;67505;-71
2023/07/26 08:22:13;;;;;;;;;8.25;5.00;;;;;19.28;56.14;100951.56;5034482;28;50992;-74
2023/07/26 08:24:39;;;;;;;;;4.75;4.00;;;;;19.34;55.87;100953.00;5036263;28;44715;-73
2023/07/26 08:27:06;;;;;;;;;6.00;4.50;;;;;19.39;55.04;100952.69;5036842;28;63187;-67
2023/07/26 08:29:32;;;;;;;;;5.50;4.00;;;;;19.40;54.93;100957.91;5037912;28;45492;-67
2023/07/26 08:31:57;;;;;;;;;4.00;3.00;;;;;19.44;55.09;100951.50;5029862;28;48154;-67
2023/07/26 08:34:22;;;;;;;;;7.25;5.00;;;;;19.51;54.64;100951.94;5051829;28;45467;-68
2023/07/26 08:36:48;;;;;;;;;4.00;3.00;;;;;19.53;54.83;100953.59;5029812;28;58522;-69
2023/07/26 08:39:13;;;;;;;;;5.00;3.25;;;;;19.52;54.55;100953.66;5035971;28;58034;-69
2023/07/26 08:41:38;;;;;;;;;4.00;4.00;;;;;19.60;54.78;100956.72;5046245;28;75024;-69
2023/07/26 08:44:04;;;;;;;;;6.00;3.25;;;;;19.67;54.12;100957.19;5034392;28;61574;-69
2023/07/26 08:46:30;;;;;;;;;3.75;3.00;;;;;19.71;53.99;100953.41;5034652;28;68102;-68
2023/07/26 08:48:56;;;;;;;;;3.00;3.00;;;;;19.77;53.88;100953.03;5037543;28;70607;-67
2023/07/26 08:51:22;;;;;;;;;4.50;2.50;;;;;19.79;53.33;100953.78;5034017;28;70760;-68
2023/07/26 08:53:48;;;;;;;;;4.50;4.00;;;;;19.88;53.31;100960.34;5037092;28;69255;-68
2023/07/26 08:56:15;;;;;;;;;4.00;3.50;;;;;19.99;52.83;100944.59;5019567;28;45498;-68
2023/07/26 08:58:40;;;;;;;;;9.00;5.00;;;;;20.10;52.88;100957.19;5024801;28;46532;-71
2023/07/26 09:01:06;;;;;;;;;3.75;3.00;;;;;20.15;52.06;100952.44;5035993;28;64730;-71
2023/07/26 09:03:31;;;;;;;;;2.00;2.00;;;;;20.22;51.59;100947.56;5019364;28;45403;-74
2023/07/26 09:06:05;;;;;;;;;5.50;3.00;;;;;20.22;50.53;100943.13;5037679;28;45599;-74
2023/07/26 09:08:30;;;;;;;;;2.25;2.25;;;;;20.27;50.43;100938.38;5038350;28;46124;-72
2023/07/26 09:10:56;;;;;;;;;1.75;1.75;;;;;20.25;50.00;100926.13;5035848;28;47088;-75
2023/07/26 09:13:21;;;;;;;;;3.00;2.00;;;;;20.37;48.07;100938.63;5033983;28;45378;-74
2023/07/26 09:15:47;;;;;;;;;4.00;2.00;;;;;20.45;49.31;100938.09;5024797;28;69550;-74
2023/07/26 09:18:14;;;;;;;;;2.00;2.00;;;;;20.44;49.33;100931.09;5036067;28;59793;-73
2023/07/26 09:20:40;;;;;;;;;1.00;1.00;;;;;20.43;48.47;100934.69;5039051;28;45306;-73
2023/07/26 09:23:05;;;;;;;;;4.25;3.50;;;;;20.52;48.77;100941.22;5031936;28;45640;-74
2023/07/26 09:25:31;;;;;;;;;17.50;14.75;;;;;20.61;49.20;100940.59;5035938;28;45405;-73
2023/07/26 09:27:58;;;;;;;;;3.75;2.50;;;;;20.69;49.28;100940.16;5024095;28;46976;-72
2023/07/26 09:30:25;;;;;;;;;3.00;2.00;;;;;20.75;48.25;100939.72;5039430;28;45880;-73
2023/07/26 09:32:50;;;;;;;;;4.00;3.00;;;;;20.87;48.31;100941.56;5035253;28;45596;-72
2023/07/26 09:35:16;;;;;;;;;4.00;3.00;;;;;21.00;47.45;100941.59;5015807;28;45623;-71
2023/07/26 09:37:41;;;;;;;;;3.25;1.00;;;;;21.20;47.16;100946.41;5040525;28;45697;-71
2023/07/26 09:40:07;;;;;;;;;4.25;3.00;;;;;21.34;46.41;100941.97;5033006;28;62358;-71
2023/07/26 09:42:46;;;;;;;;;2.00;2.00;;;;;21.42;46.20;100951.13;5040409;28;45312;-72
2023/07/26 09:45:19;;;;;;;;;2.00;2.00;;;;;21.47;45.97;100950.84;5023139;28;45430;-73
2023/07/26 09:47:44;;;;;;;;;4.00;3.00;;;;;21.43;45.19;100944.00;5046144;28;46821;-73
2023/07/26 09:50:24;;;;;;;;;2.25;2.00;;;;;21.38;45.76;100952.28;5016677;28;46053;-73
2023/07/26 09:52:51;;;;;;;;;2.75;2.00;;;;;21.42;45.99;100960.91;5021152;28;45486;-73
2023/07/26 09:55:17;;;;;;;;;2.25;2.00;;;;;21.41;45.81;100960.06;5017847;28;45631;-73
2023/07/26 09:57:43;;;;;;;;;2.00;2.00;;;;;21.47;45.83;100957.97;5038002;28;68202;-76
2023/07/26 10:00:11;;;;;;;;;3.25;1.50;;;;;21.50;45.96;100960.44;5036311;28;45466;-72
2023/07/26 10:02:36;;;;;;;;;2.25;2.25;;;;;21.57;45.57;100961.72;5041957;28;45423;-73
2023/07/26 10:05:03;;;;;;;;;5.50;3.00;;;;;21.66;45.83;100957.56;5037759;28;55911;-73
2023/07/26 10:07:31;;;;;;;;;3.00;2.25;;;;;21.74;45.11;100966.72;5039234;28;45513;-76
2023/07/26 10:09:58;;;;;;;;;2.75;2.25;;;;;21.76;43.88;100964.78;5021550;28;45811;-73
2023/07/26 10:12:25;;;;;;;;;2.50;2.50;;;;;21.77;44.56;100963.81;5033177;28;45602;-73
2023/07/26 10:14:54;;;;;;;;;5.00;3.00;;;;;21.79;44.03;100959.22;5034992;28;45315;-74
2023/07/26 10:17:21;;;;;;;;;4.75;2.00;;;;;21.76;44.01;100963.91;5054333;28;46725;-74
2023/07/26 10:19:47;;;;;;;;;1.75;1.75;;;;;21.78;43.04;100960.19;5033011;28;45339;-75
2023/07/26 10:22:13;;;;;;;;;3.75;3.00;;;;;21.86;44.37;100964.97;5036599;28;45381;-74
2023/07/26 10:24:41;;;;;;;;;1.25;1.25;;;;;21.92;43.38;100953.91;5036185;28;45377;-78
2023/07/26 10:27:07;;;;;;;;;3.75;3.00;;;;;21.99;43.70;100960.50;5023878;28;47217;-72
2023/07/26 10:29:32;;;;;;;;;2.25;1.75;;;;;22.07;42.84;100949.25;5031734;28;56578;-76
2023/07/26 10:32:06;;;;;;;;;6.50;2.00;;;;;22.19;43.23;100956.38;5026114;28;66695;-74
2023/07/26 10:34:32;;;;;;;;;3.75;2.00;;;;;22.29;43.73;100955.72;5036918;28;45475;-76
2023/07/26 10:36:57;;;;;;;;;2.00;1.00;;;;;22.34;42.40;100950.91;5034425;28;46762;-75
2023/07/26 10:39:33;;;;;;;;;2.00;1.00;;;;;22.34;41.96;100937.59;5034193;28;45476;-72
2023/07/26 10:41:59;;;;;;;;;3.00;2.00;;;;;22.36;42.70;100947.19;5039483;28;45443;-79
2023/07/26 10:44:25;;;;;;;;;2.25;2.00;;;;;22.46;42.92;100939.34;5026428;28;45650;-75
2023/07/26 10:46:55;;;;;;;;;3.00;3.00;;;;;22.58;42.38;100937.59;5012521;28;47132;-76
2023/07/26 10:49:24;;;;;;;;;4.25;3.25;;;;;22.68;42.04;100946.63;5032283;28;45260;-74
2023/07/26 10:51:58;;;;;;;;;4.50;4.00;;;;;22.75;41.59;100942.53;5035909;28;45478;-77
2023/07/26 10:54:44;;;;;;;;;2.75;1.00;;;;;22.83;41.78;100939.28;5036416;28;45873;-73
2023/07/26 10:57:23;;;;;;;;;4.75;3.50;;;;;22.95;39.91;100945.50;5028543;28;45609;-79
2023/07/26 10:59:59;;;;;;;;;3.00;2.75;;;;;23.05;40.69;100943.00;5038372;28;45439;-78
2023/07/26 11:02:48;;;;;;;;;2.00;2.00;;;;;23.06;41.37;100944.72;5038743;28;45239;-74
2023/07/26 11:05:13;;;;;;;;;0.50;0.50;;;;;23.03;40.59;100953.75;5040302;28;45525;-79
2023/07/26 11:08:02;;;;;;;;;1.25;1.25;;;;;22.98;40.78;100949.75;5036066;28;47637;-75
2023/07/26 11:10:29;;;;;;;;;1.25;1.25;;;;;22.94;38.87;100947.31;5034247;28;45441;-76
2023/07/26 11:13:11;;;;;;;;;3.00;2.00;;;;;22.94;37.08;100946.47;5031981;28;45462;-77
2023/07/26 11:15:41;;;;;;;;;4.50;2.25;;;;;22.96;39.41;100946.34;5037797;28;45530;-77
2023/07/26 11:18:08;;;;;;;;;2.25;1.75;;;;;22.86;39.57;100944.38;5039461;28;45572;-77
2023/07/26 11:20:36;;;;;;;;;1.25;1.25;;;;;22.83;39.22;100939.28;5035495;28;45427;-78